sensor_id;sensor_type;location;lat;lon;timestamp;P1;durP1;ratioP1;P2;durP2;ratioP2
49566;SDS011;35472;50.514;30.448;2022-11-20T00:02:02;11.32;;;7.47;;
49566;SDS011;35472;50.514;30.448;2022-11-20T00:04:27;15.35;;;8.52;;
49566;SDS011;35472;50.514;30.448;2022-11-20T00:06:53;12.98;;;8.68;;
49566;SDS011;35472;50.514;30.448;2022-11-20T00:09:18;12.50;;;6.55;;
49566;SDS011;35472;50.514;30.448;2022-11-20T00:11:43;14.95;;;8.30;;
49566;SDS011;35472;50.514;30.448;2022-11-20T00:14:08;12.70;;;7.07;;
49566;SDS011;35472;50.514;30.448;2022-11-20T00:16:34;14.95;;;8.38;;
49566;SDS011;35472;50.514;30.448;2022-11-20T00:18:59;12.27;;;7.25;;
49566;SDS011;35472;50.514;30.448;2022-11-20T00:21:25;11.32;;;7.30;;
49566;SDS011;35472;50.514;30.448;2022-11-20T00:23:52;15.02;;;6.88;;
49566;SDS011;35472;50.514;30.448;2022-11-20T00:26:18;11.68;;;6.72;;
49566;SDS011;35472;50.514;30.448;2022-11-20T00:28:48;14.05;;;6.93;;
49566;SDS011;35472;50.514;30.448;2022-11-20T00:31:14;10.65;;;6.68;;
49566;SDS011;35472;50.514;30.448;2022-11-20T00:33:40;12.77;;;8.05;;
49566;SDS011;35472;50.514;30.448;2022-11-20T00:36:16;9.57;;;6.15;;
49566;SDS011;35472;50.514;30.448;2022-11-20T00:38:42;11.13;;;7.40;;
49566;SDS011;35472;50.514;30.448;2022-11-20T00:41:08;11.15;;;6.85;;
49566;SDS011;35472;50.514;30.448;2022-11-20T00:43:34;10.30;;;5.88;;
49566;SDS011;35472;50.514;30.448;2022-11-20T00:46:04;15.68;;;7.82;;
49566;SDS011;35472;50.514;30.448;2022-11-20T00:48:29;11.00;;;7.40;;
49566;SDS011;35472;50.514;30.448;2022-11-20T00:50:54;16.35;;;7.50;;
49566;SDS011;35472;50.514;30.448;2022-11-20T00:53:20;13.18;;;7.22;;
49566;SDS011;35472;50.514;30.448;2022-11-20T00:55:52;14.20;;;7.53;;
49566;SDS011;35472;50.514;30.448;2022-11-20T00:58:17;9.48;;;6.07;;
49566;SDS011;35472;50.514;30.448;2022-11-20T01:03:23;14.63;;;8.82;;
49566;SDS011;35472;50.514;30.448;2022-11-20T01:05:48;16.03;;;8.20;;
49566;SDS011;35472;50.514;30.448;2022-11-20T01:08:14;14.65;;;7.60;;
49566;SDS011;35472;50.514;30.448;2022-11-20T01:10:39;13.32;;;7.40;;
49566;SDS011;35472;50.514;30.448;2022-11-20T01:13:04;14.40;;;8.88;;
49566;SDS011;35472;50.514;30.448;2022-11-20T01:15:49;13.43;;;7.57;;
49566;SDS011;35472;50.514;30.448;2022-11-20T01:18:14;12.10;;;8.02;;
49566;SDS011;35472;50.514;30.448;2022-11-20T01:20:39;17.52;;;9.00;;
49566;SDS011;35472;50.514;30.448;2022-11-20T01:23:04;20.33;;;11.20;;
49566;SDS011;35472;50.514;30.448;2022-11-20T01:25:30;21.35;;;11.88;;
49566;SDS011;35472;50.514;30.448;2022-11-20T01:27:55;21.35;;;10.75;;
49566;SDS011;35472;50.514;30.448;2022-11-20T01:30:20;34.35;;;18.38;;
49566;SDS011;35472;50.514;30.448;2022-11-20T01:32:45;38.63;;;20.95;;
49566;SDS011;35472;50.514;30.448;2022-11-20T01:35:11;21.02;;;11.75;;
49566;SDS011;35472;50.514;30.448;2022-11-20T01:37:36;19.38;;;12.35;;
49566;SDS011;35472;50.514;30.448;2022-11-20T01:40:01;14.70;;;10.15;;
49566;SDS011;35472;50.514;30.448;2022-11-20T01:42:27;19.45;;;9.52;;
49566;SDS011;35472;50.514;30.448;2022-11-20T01:47:54;16.27;;;8.77;;
49566;SDS011;35472;50.514;30.448;2022-11-20T01:50:24;17.27;;;10.90;;
49566;SDS011;35472;50.514;30.448;2022-11-20T01:52:56;17.60;;;10.13;;
49566;SDS011;35472;50.514;30.448;2022-11-20T01:55:24;16.80;;;9.98;;
49566;SDS011;35472;50.514;30.448;2022-11-20T01:57:51;17.48;;;8.85;;
49566;SDS011;35472;50.514;30.448;2022-11-20T02:00:17;18.08;;;10.18;;
49566;SDS011;35472;50.514;30.448;2022-11-20T02:02:44;15.63;;;9.75;;
49566;SDS011;35472;50.514;30.448;2022-11-20T02:07:56;19.63;;;10.13;;
49566;SDS011;35472;50.514;30.448;2022-11-20T02:10:22;17.23;;;10.35;;
49566;SDS011;35472;50.514;30.448;2022-11-20T02:12:48;16.38;;;9.55;;
49566;SDS011;35472;50.514;30.448;2022-11-20T02:15:32;17.65;;;10.30;;
49566;SDS011;35472;50.514;30.448;2022-11-20T02:17:57;16.63;;;10.00;;
49566;SDS011;35472;50.514;30.448;2022-11-20T02:20:23;20.67;;;9.75;;
49566;SDS011;35472;50.514;30.448;2022-11-20T02:22:50;25.48;;;13.20;;
49566;SDS011;35472;50.514;30.448;2022-11-20T02:25:18;19.85;;;10.50;;
49566;SDS011;35472;50.514;30.448;2022-11-20T02:27:44;23.88;;;13.07;;
49566;SDS011;35472;50.514;30.448;2022-11-20T02:30:10;21.50;;;11.70;;
49566;SDS011;35472;50.514;30.448;2022-11-20T02:32:36;24.77;;;11.98;;
49566;SDS011;35472;50.514;30.448;2022-11-20T02:35:09;22.80;;;12.18;;
49566;SDS011;35472;50.514;30.448;2022-11-20T02:37:35;27.05;;;12.68;;
49566;SDS011;35472;50.514;30.448;2022-11-20T02:40:02;29.88;;;15.15;;
49566;SDS011;35472;50.514;30.448;2022-11-20T02:42:27;28.33;;;13.82;;
49566;SDS011;35472;50.514;30.448;2022-11-20T02:44:52;30.98;;;12.10;;
49566;SDS011;35472;50.514;30.448;2022-11-20T02:47:17;25.80;;;12.65;;
49566;SDS011;35472;50.514;30.448;2022-11-20T02:49:43;27.50;;;14.00;;
49566;SDS011;35472;50.514;30.448;2022-11-20T02:52:08;23.95;;;12.65;;
49566;SDS011;35472;50.514;30.448;2022-11-20T02:54:33;23.65;;;12.95;;
49566;SDS011;35472;50.514;30.448;2022-11-20T02:56:58;28.98;;;13.77;;
49566;SDS011;35472;50.514;30.448;2022-11-20T02:59:24;34.90;;;16.13;;
49566;SDS011;35472;50.514;30.448;2022-11-20T03:01:49;18.35;;;11.13;;
49566;SDS011;35472;50.514;30.448;2022-11-20T03:04:14;19.30;;;11.07;;
49566;SDS011;35472;50.514;30.448;2022-11-20T03:06:40;23.20;;;12.45;;
49566;SDS011;35472;50.514;30.448;2022-11-20T03:09:05;24.48;;;12.85;;
49566;SDS011;35472;50.514;30.448;2022-11-20T03:11:30;16.85;;;10.45;;
49566;SDS011;35472;50.514;30.448;2022-11-20T03:13:55;20.85;;;11.35;;
49566;SDS011;35472;50.514;30.448;2022-11-20T03:16:21;27.35;;;13.80;;
49566;SDS011;35472;50.514;30.448;2022-11-20T03:18:47;26.13;;;13.98;;
49566;SDS011;35472;50.514;30.448;2022-11-20T03:21:12;25.00;;;13.73;;
49566;SDS011;35472;50.514;30.448;2022-11-20T03:23:38;24.17;;;12.80;;
49566;SDS011;35472;50.514;30.448;2022-11-20T03:26:11;31.77;;;14.95;;
49566;SDS011;35472;50.514;30.448;2022-11-20T03:28:36;28.45;;;13.20;;
49566;SDS011;35472;50.514;30.448;2022-11-20T03:31:06;26.98;;;13.38;;
49566;SDS011;35472;50.514;30.448;2022-11-20T03:33:32;26.52;;;12.93;;
49566;SDS011;35472;50.514;30.448;2022-11-20T03:36:00;25.48;;;14.20;;
49566;SDS011;35472;50.514;30.448;2022-11-20T03:38:28;25.35;;;12.40;;
49566;SDS011;35472;50.514;30.448;2022-11-20T03:40:57;25.40;;;14.38;;
49566;SDS011;35472;50.514;30.448;2022-11-20T03:43:22;26.80;;;14.70;;
49566;SDS011;35472;50.514;30.448;2022-11-20T03:45:47;28.77;;;16.33;;
49566;SDS011;35472;50.514;30.448;2022-11-20T03:48:13;29.55;;;16.50;;
49566;SDS011;35472;50.514;30.448;2022-11-20T03:50:38;27.40;;;12.88;;
49566;SDS011;35472;50.514;30.448;2022-11-20T03:53:03;22.80;;;11.48;;
49566;SDS011;35472;50.514;30.448;2022-11-20T03:55:28;22.45;;;11.90;;
49566;SDS011;35472;50.514;30.448;2022-11-20T03:57:54;22.05;;;12.20;;
49566;SDS011;35472;50.514;30.448;2022-11-20T04:00:19;22.20;;;12.80;;
49566;SDS011;35472;50.514;30.448;2022-11-20T04:02:44;24.23;;;12.43;;
49566;SDS011;35472;50.514;30.448;2022-11-20T04:05:10;21.83;;;13.38;;
49566;SDS011;35472;50.514;30.448;2022-11-20T04:07:35;26.55;;;13.63;;
49566;SDS011;35472;50.514;30.448;2022-11-20T04:10:00;25.58;;;13.65;;
49566;SDS011;35472;50.514;30.448;2022-11-20T04:12:25;25.42;;;13.93;;
49566;SDS011;35472;50.514;30.448;2022-11-20T04:14:50;25.37;;;13.93;;
49566;SDS011;35472;50.514;30.448;2022-11-20T04:17:16;29.90;;;14.43;;
49566;SDS011;35472;50.514;30.448;2022-11-20T04:19:41;21.92;;;14.65;;
49566;SDS011;35472;50.514;30.448;2022-11-20T04:22:09;33.78;;;14.90;;
49566;SDS011;35472;50.514;30.448;2022-11-20T04:24:36;28.42;;;15.65;;
49566;SDS011;35472;50.514;30.448;2022-11-20T04:27:01;23.77;;;14.60;;
49566;SDS011;35472;50.514;30.448;2022-11-20T04:29:27;30.38;;;16.75;;
49566;SDS011;35472;50.514;30.448;2022-11-20T04:31:52;22.95;;;14.40;;
49566;SDS011;35472;50.514;30.448;2022-11-20T04:34:18;32.08;;;15.40;;
49566;SDS011;35472;50.514;30.448;2022-11-20T04:36:43;30.30;;;15.85;;
49566;SDS011;35472;50.514;30.448;2022-11-20T04:39:11;33.25;;;14.98;;
49566;SDS011;35472;50.514;30.448;2022-11-20T04:41:37;27.90;;;15.15;;
49566;SDS011;35472;50.514;30.448;2022-11-20T04:44:03;35.22;;;17.05;;
49566;SDS011;35472;50.514;30.448;2022-11-20T04:46:33;32.25;;;18.35;;
49566;SDS011;35472;50.514;30.448;2022-11-20T04:48:59;31.60;;;18.35;;
49566;SDS011;35472;50.514;30.448;2022-11-20T04:51:24;33.50;;;17.05;;
49566;SDS011;35472;50.514;30.448;2022-11-20T04:53:49;28.38;;;14.82;;
49566;SDS011;35472;50.514;30.448;2022-11-20T04:56:15;30.02;;;15.73;;
49566;SDS011;35472;50.514;30.448;2022-11-20T04:58:40;24.23;;;15.68;;
49566;SDS011;35472;50.514;30.448;2022-11-20T05:01:10;24.23;;;13.55;;
49566;SDS011;35472;50.514;30.448;2022-11-20T05:03:36;21.08;;;12.95;;
49566;SDS011;35472;50.514;30.448;2022-11-20T05:06:01;28.30;;;16.42;;
49566;SDS011;35472;50.514;30.448;2022-11-20T05:08:27;27.38;;;14.88;;
49566;SDS011;35472;50.514;30.448;2022-11-20T05:10:52;25.38;;;13.73;;
49566;SDS011;35472;50.514;30.448;2022-11-20T05:13:18;26.30;;;14.00;;
49566;SDS011;35472;50.514;30.448;2022-11-20T05:15:43;27.63;;;14.90;;
